Edgar Oldendorff — CQYN — position and weather

sailwx.info

Track history (hours):
 
Tides and Currents Weather Stations Pressure Air Temp Water Temp Dewpoint Dewpoint Depression Visibility Wind Speed Wind Dir Waves Ship Positions

Edgar Oldendorff

Last reported at 2017-Oct-17 07:53 UTC. Time now 2017-Oct-17 11:09 UTC.
Position N 37°45' E 122°12'.

Length 179 m; draft 6.8 m.

Type: Cargo ship. MMSI: 255805893.

Date/timePositionNaut miles runAvg speedWind from/ knotsBaromVisibWave heightAir tempDewpointWater temp
2017-Oct-17 07:53N 37°45' E 122°12'4 9.7
2017-Oct-17 07:30N 37°45' E 122°07'5 9.8
2017-Oct-17 06:59N 37°45' E 122°01'510.0
2017-Oct-17 06:30N 37°45' E 121°55'510.1
2017-Oct-17 06:00N 37°44' E 121°49'4 7.6
2017-Oct-17 05:30N 37°44' E 121°44'2 4.9
2017-Oct-17 05:00N 37°43' E 121°41'2 4.8
2017-Oct-17 04:30N 37°43' E 121°38'3 5.1
2017-Oct-17 04:00N 37°43' E 121°35'3 5.1
2017-Oct-17 03:30N 37°42' E 121°31'3 5.0
2017-Oct-17 03:00N 37°42' E 121°28'3 5.6
2017-Oct-17 02:30N 37°39' E 121°28'3 5.2
2017-Oct-17 02:00N 37°36' E 121°27'4 7.9
2017-Oct-17 01:30N 37°34' E 121°24'1 1.3
2017-Oct-17 00:58N 37°34' E 121°23'0 0.0
2017-Oct-17 00:28N 37°34' E 121°23'0 0.0
2017-Oct-16 23:55N 37°34' E 121°23'0 0.0
2017-Oct-16 23:28N 37°34' E 121°23'0 0.0
2017-Oct-16 22:58N 37°34' E 121°23'0 0.0
2017-Oct-16 22:28N 37°34' E 121°23'0 0.0
2017-Oct-16 21:58N 37°34' E 121°23'0 0.0
2017-Oct-16 21:28N 37°34' E 121°23'0 0.0
2017-Oct-16 20:52N 37°34' E 121°23'0 0.0
2017-Oct-16 20:28N 37°34' E 121°23'0 0.0
2017-Oct-16 19:58N 37°34' E 121°23'0 0.0
2017-Oct-16 19:28N 37°34' E 121°23'0 0.0
2017-Oct-16 18:58N 37°34' E 121°23'0 0.0
2017-Oct-16 18:28N 37°34' E 121°23'0 0.0
2017-Oct-16 17:58N 37°34' E 121°23'0 0.0
2017-Oct-16 17:30N 37°34' E 121°23'0 0.0
2017-Oct-16 17:00N 37°34' E 121°23'0 0.0
2017-Oct-16 16:30N 37°34' E 121°23'0 0.0
2017-Oct-16 16:00N 37°34' E 121°23'0 0.0
2017-Oct-16 15:30N 37°34' E 121°23'0 0.0
2017-Oct-16 15:00N 37°34' E 121°23'0 0.0
2017-Oct-16 14:27N 37°34' E 121°23'0 0.0
2017-Oct-16 13:30N 37°34' E 121°23'0 0.0
2017-Oct-16 13:00N 37°34' E 121°23'0 0.0
2017-Oct-16 12:30N 37°34' E 121°23'0 0.0
2017-Oct-16 12:00N 37°34' E 121°23'0 0.0
2017-Oct-16 11:24N 37°34' E 121°23'0 0.0
2017-Oct-16 11:00N 37°34' E 121°23'0 0.0
2017-Oct-16 10:27N 37°34' E 121°23'0 0.0
2017-Oct-16 10:00N 37°34' E 121°23'0 0.0
2017-Oct-16 09:27N 37°34' E 121°23'0 0.0
2017-Oct-16 09:00N 37°34' E 121°23'0 0.0
2017-Oct-16 08:30N 37°34' E 121°23'0 0.0
2017-Oct-16 08:00N 37°34' E 121°23'0 0.0
2017-Oct-16 07:27N 37°34' E 121°23'0 0.0
2017-Oct-16 06:57N 37°34' E 121°23'0 0.0
2017-Oct-16 06:30N 37°34' E 121°23'0 0.0
2017-Oct-16 05:54N 37°34' E 121°23'0 0.0
2017-Oct-16 05:27N 37°34' E 121°23'0 0.0
2017-Oct-16 05:00N 37°34' E 121°23'0 0.0
2017-Oct-16 04:30N 37°34' E 121°23'0 0.0
2017-Oct-16 04:00N 37°34' E 121°23'0 0.0
2017-Oct-16 03:30N 37°34' E 121°23'0 0.0
2017-Oct-16 03:00N 37°34' E 121°23'0 0.0
2017-Oct-16 02:30N 37°34' E 121°23'0 0.0
2017-Oct-16 02:00N 37°34' E 121°23'0 0.0
2017-Oct-16 01:30N 37°34' E 121°23'0 0.0
2017-Oct-16 00:57N 37°34' E 121°23'0 0.0
2017-Oct-16 00:29N 37°34' E 121°23'0 0.0
2017-Oct-15 23:59N 37°34' E 121°23'0 0.0
2017-Oct-15 23:29N 37°34' E 121°23'0 0.0
2017-Oct-15 22:59N 37°34' E 121°23'0 0.0
2017-Oct-15 22:29N 37°34' E 121°23'0 0.0
2017-Oct-15 21:59N 37°34' E 121°23'0 0.0
2017-Oct-15 21:29N 37°34' E 121°23'0 0.0
2017-Oct-15 20:59N 37°34' E 121°23'0 0.0
2017-Oct-15 20:29N 37°34' E 121°23'0 0.0
2017-Oct-15 19:56N 37°34' E 121°23'0 0.0
2017-Oct-15 19:29N 37°34' E 121°23'0 0.0
2017-Oct-15 18:56N 37°34' E 121°23'0 0.0
2017-Oct-15 18:29N 37°34' E 121°23'0 0.0
2017-Oct-15 17:59N 37°34' E 121°23'0 0.0
2017-Oct-15 17:26N 37°34' E 121°23'0 0.0
2017-Oct-15 16:59N 37°34' E 121°23'0 0.0
2017-Oct-15 16:29N 37°34' E 121°23'0 0.0
2017-Oct-15 15:59N 37°34' E 121°23'0 0.0
2017-Oct-15 15:26N 37°34' E 121°23'0 0.0
2017-Oct-15 14:59N 37°34' E 121°23'0 0.0
2017-Oct-15 13:59N 37°34' E 121°23'0 0.0
2017-Oct-15 13:26N 37°34' E 121°23'0 0.0
2017-Oct-15 12:59N 37°34' E 121°23'0 0.0
2017-Oct-15 12:29N 37°34' E 121°23'0 0.0
2017-Oct-15 11:59N 37°34' E 121°23'0 0.0
2017-Oct-15 11:29N 37°34' E 121°23'0 0.0
2017-Oct-15 10:59N 37°34' E 121°23'0 0.0
2017-Oct-15 10:29N 37°34' E 121°23'0 0.0
2017-Oct-15 09:59N 37°34' E 121°23'0 0.0
2017-Oct-15 09:20N 37°34' E 121°23'0 0.0
2017-Oct-15 08:59N 37°34' E 121°23'0 0.0
2017-Oct-15 08:29N 37°34' E 121°23'0 0.0
2017-Oct-15 07:59N 37°34' E 121°23'0 0.0
2017-Oct-15 07:29N 37°34' E 121°23'0 0.0
2017-Oct-15 06:59N 37°34' E 121°23'0 0.0
2017-Oct-15 06:26N 37°34' E 121°23'0 0.8
2017-Oct-15 06:00N 37°34' E 121°23'4 7.2
2017-Oct-15 05:30N 37°36' E 121°27'3 5.3
2017-Oct-15 05:00N 37°38' E 121°29'1 2.5
2017-Oct-15 04:30N 37°39' E 121°30'2 3.8
2017-Oct-15 04:00N 37°39' E 121°32'1 2.8
2017-Oct-15 03:31N 37°40' E 121°34'3 5.9
2017-Oct-15 03:01N 37°41' E 121°37'5 9.4
2017-Oct-15 02:31N 37°44' E 121°42'510.2
2017-Oct-15 02:00N 37°47' E 121°47'510.0
2017-Oct-15 01:31N 37°50' E 121°52'510.6
2017-Oct-15 01:00N 37°50' E 121°59'  
2017-Oct-08 19:50N 36°48' E 125°49'  
Track history (hours):
 
Tides and Currents Weather Stations Pressure Air Temp Water Temp Dewpoint Dewpoint Depression Visibility Wind Speed Wind Dir Waves Ship Positions

Edgar Oldendorff

Last reported at 2017-Oct-17 07:53 UTC. Time now 2017-Oct-17 11:09 UTC.
Position N 37°45' E 122°12'.

Length 179 m; draft 6.8 m.

Type: Cargo ship. MMSI: 255805893.

Date/timePositionNaut miles runAvg speedWind from/ knotsBaromVisibWave heightAir tempDewpointWater temp
2017-Oct-17 07:53N 37°45' E 122°12'4 9.7
2017-Oct-17 07:30N 37°45' E 122°07'5 9.8
2017-Oct-17 06:59N 37°45' E 122°01'510.0
2017-Oct-17 06:30N 37°45' E 121°55'510.1
2017-Oct-17 06:00N 37°44' E 121°49'4 7.6
2017-Oct-17 05:30N 37°44' E 121°44'2 4.9
2017-Oct-17 05:00N 37°43' E 121°41'2 4.8
2017-Oct-17 04:30N 37°43' E 121°38'3 5.1
2017-Oct-17 04:00N 37°43' E 121°35'3 5.1
2017-Oct-17 03:30N 37°42' E 121°31'3 5.0
2017-Oct-17 03:00N 37°42' E 121°28'3 5.6
2017-Oct-17 02:30N 37°39' E 121°28'3 5.2
2017-Oct-17 02:00N 37°36' E 121°27'4 7.9
2017-Oct-17 01:30N 37°34' E 121°24'1 1.3
2017-Oct-17 00:58N 37°34' E 121°23'0 0.0
2017-Oct-17 00:28N 37°34' E 121°23'0 0.0
2017-Oct-16 23:55N 37°34' E 121°23'0 0.0
2017-Oct-16 23:28N 37°34' E 121°23'0 0.0
2017-Oct-16 22:58N 37°34' E 121°23'0 0.0
2017-Oct-16 22:28N 37°34' E 121°23'0 0.0
2017-Oct-16 21:58N 37°34' E 121°23'0 0.0
2017-Oct-16 21:28N 37°34' E 121°23'0 0.0
2017-Oct-16 20:52N 37°34' E 121°23'0 0.0
2017-Oct-16 20:28N 37°34' E 121°23'0 0.0
2017-Oct-16 19:58N 37°34' E 121°23'0 0.0
2017-Oct-16 19:28N 37°34' E 121°23'0 0.0
2017-Oct-16 18:58N 37°34' E 121°23'0 0.0
2017-Oct-16 18:28N 37°34' E 121°23'0 0.0
2017-Oct-16 17:58N 37°34' E 121°23'0 0.0
2017-Oct-16 17:30N 37°34' E 121°23'0 0.0
2017-Oct-16 17:00N 37°34' E 121°23'0 0.0
2017-Oct-16 16:30N 37°34' E 121°23'0 0.0
2017-Oct-16 16:00N 37°34' E 121°23'0 0.0
2017-Oct-16 15:30N 37°34' E 121°23'0 0.0
2017-Oct-16 15:00N 37°34' E 121°23'0 0.0
2017-Oct-16 14:27N 37°34' E 121°23'0 0.0
2017-Oct-16 13:30N 37°34' E 121°23'0 0.0
2017-Oct-16 13:00N 37°34' E 121°23'0 0.0
2017-Oct-16 12:30N 37°34' E 121°23'0 0.0
2017-Oct-16 12:00N 37°34' E 121°23'0 0.0
2017-Oct-16 11:24N 37°34' E 121°23'0 0.0
2017-Oct-16 11:00N 37°34' E 121°23'0 0.0
2017-Oct-16 10:27N 37°34' E 121°23'0 0.0
2017-Oct-16 10:00N 37°34' E 121°23'0 0.0
2017-Oct-16 09:27N 37°34' E 121°23'0 0.0
2017-Oct-16 09:00N 37°34' E 121°23'0 0.0
2017-Oct-16 08:30N 37°34' E 121°23'0 0.0
2017-Oct-16 08:00N 37°34' E 121°23'0 0.0
2017-Oct-16 07:27N 37°34' E 121°23'0 0.0
2017-Oct-16 06:57N 37°34' E 121°23'0 0.0
2017-Oct-16 06:30N 37°34' E 121°23'0 0.0
2017-Oct-16 05:54N 37°34' E 121°23'0 0.0
2017-Oct-16 05:27N 37°34' E 121°23'0 0.0
2017-Oct-16 05:00N 37°34' E 121°23'0 0.0
2017-Oct-16 04:30N 37°34' E 121°23'0 0.0
2017-Oct-16 04:00N 37°34' E 121°23'0 0.0
2017-Oct-16 03:30N 37°34' E 121°23'0 0.0
2017-Oct-16 03:00N 37°34' E 121°23'0 0.0
2017-Oct-16 02:30N 37°34' E 121°23'0 0.0
2017-Oct-16 02:00N 37°34' E 121°23'0 0.0
2017-Oct-16 01:30N 37°34' E 121°23'0 0.0
2017-Oct-16 00:57N 37°34' E 121°23'0 0.0
2017-Oct-16 00:29N 37°34' E 121°23'0 0.0
2017-Oct-15 23:59N 37°34' E 121°23'0 0.0
2017-Oct-15 23:29N 37°34' E 121°23'0 0.0
2017-Oct-15 22:59N 37°34' E 121°23'0 0.0
2017-Oct-15 22:29N 37°34' E 121°23'0 0.0
2017-Oct-15 21:59N 37°34' E 121°23'0 0.0
2017-Oct-15 21:29N 37°34' E 121°23'0 0.0
2017-Oct-15 20:59N 37°34' E 121°23'0 0.0
2017-Oct-15 20:29N 37°34' E 121°23'0 0.0
2017-Oct-15 19:56N 37°34' E 121°23'0 0.0
2017-Oct-15 19:29N 37°34' E 121°23'0 0.0
2017-Oct-15 18:56N 37°34' E 121°23'0 0.0
2017-Oct-15 18:29N 37°34' E 121°23'0 0.0
2017-Oct-15 17:59N 37°34' E 121°23'0 0.0
2017-Oct-15 17:26N 37°34' E 121°23'0 0.0
2017-Oct-15 16:59N 37°34' E 121°23'0 0.0
2017-Oct-15 16:29N 37°34' E 121°23'0 0.0
2017-Oct-15 15:59N 37°34' E 121°23'0 0.0
2017-Oct-15 15:26N 37°34' E 121°23'0 0.0
2017-Oct-15 14:59N 37°34' E 121°23'0 0.0
2017-Oct-15 13:59N 37°34' E 121°23'0 0.0
2017-Oct-15 13:26N 37°34' E 121°23'0 0.0
2017-Oct-15 12:59N 37°34' E 121°23'0 0.0
2017-Oct-15 12:29N 37°34' E 121°23'0 0.0
2017-Oct-15 11:59N 37°34' E 121°23'0 0.0
2017-Oct-15 11:29N 37°34' E 121°23'0 0.0
2017-Oct-15 10:59N 37°34' E 121°23'0 0.0
2017-Oct-15 10:29N 37°34' E 121°23'0 0.0
2017-Oct-15 09:59N 37°34' E 121°23'0 0.0
2017-Oct-15 09:20N 37°34' E 121°23'0 0.0
2017-Oct-15 08:59N 37°34' E 121°23'0 0.0
2017-Oct-15 08:29N 37°34' E 121°23'0 0.0
2017-Oct-15 07:59N 37°34' E 121°23'0 0.0
2017-Oct-15 07:29N 37°34' E 121°23'0 0.0
2017-Oct-15 06:59N 37°34' E 121°23'0 0.0
2017-Oct-15 06:26N 37°34' E 121°23'0 0.8
2017-Oct-15 06:00N 37°34' E 121°23'4 7.2
2017-Oct-15 05:30N 37°36' E 121°27'3 5.3
2017-Oct-15 05:00N 37°38' E 121°29'1 2.5
2017-Oct-15 04:30N 37°39' E 121°30'2 3.8
2017-Oct-15 04:00N 37°39' E 121°32'1 2.8
2017-Oct-15 03:31N 37°40' E 121°34'3 5.9
2017-Oct-15 03:01N 37°41' E 121°37'5 9.4
2017-Oct-15 02:31N 37°44' E 121°42'510.2
2017-Oct-15 02:00N 37°47' E 121°47'510.0
2017-Oct-15 01:31N 37°50' E 121°52'510.6
2017-Oct-15 01:00N 37°50' E 121°59'  
2017-Oct-08 19:50N 36°48' E 125°49'  

Dump ship's entire track history